Time;durP1;ratioP1;P1;durP2;ratioP2;P2;SDS_P1;SDS_P2;PMS_P1;PMS_P2;Temp;Humidity;BMP_temperature;BMP_pressure;BME280_temperature;BME280_humidity;BME280_pressure;Samples;Min_cycle;Max_cycle;Signal;HPM_P1;HPM_P2
2021/06/10 00:02:16;;;;;;;;;0.00;0.00;;;;;25.38;45.49;101615.25;5123621;27;45380;-62
2021/06/10 00:04:42;;;;;;;;;0.00;0.00;;;;;25.40;45.27;101618.56;5112811;27;45433;-62
2021/06/10 00:07:07;;;;;;;;;0.00;0.00;;;;;25.40;45.59;101618.56;5101509;27;45959;-63
2021/06/10 00:09:33;;;;;;;;;0.00;0.00;;;;;25.36;45.58;101619.97;5124108;27;45214;-63
2021/06/10 00:11:58;;;;;;;;;0.00;0.00;;;;;25.32;45.65;101616.00;5120756;27;45425;-62
2021/06/10 00:14:25;;;;;;;;;0.00;0.00;;;;;25.29;45.71;101619.06;5113043;27;45562;-63
2021/06/10 00:16:50;;;;;;;;;0.00;0.00;;;;;25.27;46.10;101618.44;5123658;27;45423;-63
2021/06/10 00:19:15;;;;;;;;;0.00;0.00;;;;;25.24;46.37;101616.16;5123742;27;45329;-63
2021/06/10 00:21:41;;;;;;;;;0.00;0.00;;;;;25.20;46.75;101612.19;5123839;27;45310;-63
2021/06/10 00:24:07;;;;;;;;;0.00;0.00;;;;;25.16;46.89;101617.09;5123462;27;45683;-63
2021/06/10 00:26:33;;;;;;;;;0.00;0.00;;;;;25.13;47.07;101609.41;5123132;27;46349;-62
2021/06/10 00:28:58;;;;;;;;;0.00;0.00;;;;;25.12;46.91;101611.28;5123624;27;45313;-62
2021/06/10 00:31:24;;;;;;;;;0.00;0.00;;;;;25.11;46.72;101619.53;5123507;27;45452;-62
2021/06/10 00:33:49;;;;;;;;;0.00;0.00;;;;;25.13;47.26;101621.00;5123858;27;45484;-62
2021/06/10 00:36:15;;;;;;;;;0.00;0.00;;;;;25.12;46.93;101621.22;5123303;27;46907;-62
2021/06/10 00:38:40;;;;;;;;;0.00;0.00;;;;;25.10;47.31;101620.56;5123491;27;45227;-63
2021/06/10 00:41:05;;;;;;;;;0.00;0.00;;;;;25.07;47.32;101621.75;5123141;27;45221;-63
2021/06/10 00:43:31;;;;;;;;;0.00;0.00;;;;;25.02;47.78;101621.53;5123521;27;45423;-62
2021/06/10 00:45:57;;;;;;;;;0.00;0.00;;;;;24.98;47.88;101629.13;5123296;27;46412;-63
2021/06/10 00:48:22;;;;;;;;;0.00;0.00;;;;;24.92;47.72;101627.25;5123379;27;45244;-62
2021/06/10 00:50:50;;;;;;;;;0.00;0.00;;;;;24.88;48.30;101620.59;5123115;27;45628;-63
2021/06/10 00:53:21;;;;;;;;;0.00;0.00;;;;;24.91;48.00;101625.56;5122997;27;45446;-62
2021/06/10 00:56:00;;;;;;;;;0.00;0.00;;;;;24.87;48.42;101626.97;5122761;27;46545;-63
2021/06/10 00:58:28;;;;;;;;;0.00;0.00;;;;;24.84;47.90;101615.75;5123098;27;45362;-62
2021/06/10 01:00:54;;;;;;;;;0.00;0.00;;;;;24.80;48.48;101623.41;5123114;27;45439;-62
2021/06/10 01:03:20;;;;;;;;;0.00;0.00;;;;;24.75;48.61;101621.28;5123377;27;45448;-62
2021/06/10 01:05:55;;;;;;;;;0.00;0.00;;;;;24.68;48.74;101617.69;5103416;27;46883;-62
2021/06/10 01:08:29;;;;;;;;;0.00;0.00;;;;;24.67;48.49;101617.91;5102520;27;45350;-62
2021/06/10 01:10:54;;;;;;;;;0.00;0.00;;;;;24.64;48.96;101619.09;5109944;27;45249;-62
2021/06/10 01:13:50;;;;;;;;;0.00;0.00;;;;;24.63;48.97;101619.28;5109061;27;45408;-62
2021/06/10 01:16:20;;;;;;;;;0.00;0.00;;;;;24.59;49.09;101613.47;5122537;27;45262;-63
2021/06/10 01:18:48;;;;;;;;;0.00;0.00;;;;;24.56;49.24;101619.22;5122728;27;45419;-63
2021/06/10 01:21:16;;;;;;;;;0.00;0.00;;;;;24.51;48.52;101613.56;5122945;27;45302;-63
2021/06/10 01:24:01;;;;;;;;;0.00;0.00;;;;;24.45;48.92;101607.09;5123030;27;45192;-62
2021/06/10 01:26:50;;;;;;;;;0.00;0.00;;;;;24.38;48.69;101599.97;5122188;27;47138;-62
2021/06/10 01:29:17;;;;;;;;;0.00;0.00;;;;;24.29;50.10;101599.25;5122745;27;45372;-63
2021/06/10 01:31:43;;;;;;;;;0.00;0.00;;;;;24.23;49.17;101592.78;5122299;27;45409;-62
2021/06/10 01:34:10;;;;;;;;;0.00;0.00;;;;;24.19;49.22;101594.22;5122812;27;45379;-62
2021/06/10 01:36:45;;;;;;;;;0.00;0.00;;;;;24.15;49.40;101604.47;5103702;27;47695;-62
2021/06/10 01:39:14;;;;;;;;;0.00;0.00;;;;;24.11;48.93;101605.03;5122370;27;45327;-62
2021/06/10 01:41:41;;;;;;;;;0.00;0.00;;;;;24.05;49.14;101584.31;5122392;27;45528;-62
2021/06/10 01:44:09;;;;;;;;;0.00;0.00;;;;;23.97;49.45;101587.94;5122484;27;45330;-62
2021/06/10 01:46:35;;;;;;;;;0.00;0.00;;;;;23.95;49.02;101601.56;5122484;27;46127;-62
2021/06/10 01:49:03;;;;;;;;;0.00;0.00;;;;;23.92;48.95;101601.09;5122573;27;45247;-62
2021/06/10 01:51:30;;;;;;;;;0.00;0.00;;;;;23.85;48.80;101598.31;5122572;27;45470;-63
2021/06/10 01:53:59;;;;;;;;;0.00;0.00;;;;;23.77;49.08;101597.56;5122196;27;45455;-62
2021/06/10 01:56:25;;;;;;;;;0.00;0.00;;;;;23.78;48.81;101600.09;5121946;27;47387;-62
2021/06/10 01:58:52;;;;;;;;;0.00;0.00;;;;;23.77;49.04;101590.34;5122283;27;45428;-62
2021/06/10 02:01:20;;;;;;;;;0.00;0.00;;;;;23.72;49.34;101587.38;5122587;27;45310;-62
2021/06/10 02:03:48;;;;;;;;;0.00;0.00;;;;;23.69;49.58;101585.91;5120369;27;45557;-63
2021/06/10 02:06:15;;;;;;;;;1.00;0.00;;;;;23.57;50.21;101584.69;5105702;27;45617;-61
2021/06/10 02:08:41;;;;;;;;;0.00;0.00;;;;;23.43;50.33;101586.31;5122197;27;45364;-61
2021/06/10 02:11:07;;;;;;;;;0.00;0.00;;;;;23.40;49.80;101589.38;5103477;27;45311;-62
2021/06/10 02:13:33;;;;;;;;;0.00;0.00;;;;;23.45;50.07;101594.19;5108583;27;45409;-62
2021/06/10 02:16:04;;;;;;;;;0.00;0.00;;;;;23.44;49.95;101595.22;5122154;27;45622;-62
2021/06/10 02:18:30;;;;;;;;;0.00;0.00;;;;;23.42;50.00;101602.63;5122089;27;45249;-63
2021/06/10 02:21:02;;;;;;;;;0.00;0.00;;;;;23.36;49.54;101603.34;5122260;27;45238;-63
2021/06/10 02:23:28;;;;;;;;;0.00;0.00;;;;;23.36;49.64;101601.47;5121521;27;45164;-62
2021/06/10 02:25:54;;;;;;;;;0.00;0.00;;;;;23.30;50.06;101597.72;5121599;27;45506;-62
2021/06/10 02:28:19;;;;;;;;;0.00;0.00;;;;;23.26;49.58;101599.09;5124364;27;45314;-65
2021/06/10 02:30:45;;;;;;;;;0.00;0.00;;;;;23.23;50.04;101603.97;5125952;27;45343;-63
2021/06/10 02:33:11;;;;;;;;;0.00;0.00;;;;;23.22;49.74;101597.78;5125825;27;45407;-62
2021/06/10 02:35:36;;;;;;;;;0.00;0.00;;;;;23.17;49.73;101599.31;5125482;27;46409;-61
2021/06/10 02:38:03;;;;;;;;;0.00;0.00;;;;;23.17;49.53;101599.31;5125342;27;45306;-61
2021/06/10 02:40:35;;;;;;;;;0.00;0.00;;;;;23.16;49.44;101603.03;5106945;27;45678;-61
2021/06/10 02:43:04;;;;;;;;;0.00;0.00;;;;;23.11;49.20;101596.38;5125395;27;45468;-62
2021/06/10 02:45:31;;;;;;;;;0.00;0.00;;;;;23.03;48.92;101596.44;5125226;27;46190;-62
2021/06/10 02:47:58;;;;;;;;;0.00;0.00;;;;;22.97;49.41;101594.44;5125210;27;45396;-62
2021/06/10 02:50:25;;;;;;;;;0.00;0.00;;;;;22.94;49.19;101587.59;5125739;27;45331;-62
2021/06/10 02:52:52;;;;;;;;;0.00;0.00;;;;;22.93;49.10;101591.28;5125233;27;45529;-62
2021/06/10 02:55:19;;;;;;;;;0.75;0.75;;;;;22.87;49.69;101583.13;5124216;27;45424;-62
2021/06/10 02:57:50;;;;;;;;;0.00;0.00;;;;;22.86;50.35;101584.16;5124869;27;45482;-62
2021/06/10 03:00:17;;;;;;;;;0.00;0.00;;;;;22.81;49.88;101589.22;5125094;27;45319;-62
2021/06/10 03:02:44;;;;;;;;;0.00;0.00;;;;;22.81;49.85;101587.38;5125251;27;45217;-62
2021/06/10 03:05:11;;;;;;;;;0.00;0.00;;;;;22.79;49.55;101586.72;5110728;27;46530;-61
2021/06/10 03:07:37;;;;;;;;;0.00;0.00;;;;;22.77;49.50;101591.41;5111963;27;45283;-62
2021/06/10 03:10:10;;;;;;;;;0.00;0.00;;;;;22.73;49.93;101590.09;5124553;27;45322;-62
2021/06/10 03:12:38;;;;;;;;;0.00;0.00;;;;;22.70;49.71;101583.28;5116348;27;45275;-62
2021/06/10 03:15:06;;;;;;;;;0.00;0.00;;;;;22.68;49.84;101585.28;5119747;27;46569;-62
2021/06/10 03:17:32;;;;;;;;;0.00;0.00;;;;;22.58;50.05;101578.50;5124753;27;45261;-62
2021/06/10 03:19:57;;;;;;;;;0.00;0.00;;;;;22.49;50.01;101585.75;5106387;27;45452;-62
2021/06/10 03:22:23;;;;;;;;;0.00;0.00;;;;;22.39;50.38;101591.31;5125064;27;45235;-62
2021/06/10 03:24:49;;;;;;;;;0.00;0.00;;;;;22.33;50.64;101586.66;5124710;27;45491;-61
2021/06/10 03:27:16;;;;;;;;;0.00;0.00;;;;;22.28;50.46;101583.69;5124374;27;45286;-62
2021/06/10 03:29:41;;;;;;;;;0.00;0.00;;;;;22.22;50.56;101587.91;5124773;27;45266;-61
2021/06/10 03:32:07;;;;;;;;;0.00;0.00;;;;;22.20;50.47;101581.88;5124818;27;45463;-61
2021/06/10 03:34:33;;;;;;;;;0.00;0.00;;;;;22.14;50.51;101587.94;5124535;27;46839;-62
2021/06/10 03:37:00;;;;;;;;;0.00;0.00;;;;;22.08;50.73;101577.91;5123903;27;45352;-62
2021/06/10 03:39:27;;;;;;;;;0.00;0.00;;;;;22.11;50.76;101581.06;5124498;27;45278;-62
2021/06/10 03:41:54;;;;;;;;;0.00;0.00;;;;;22.11;50.52;101577.56;5105766;27;45585;-64
2021/06/10 03:44:20;;;;;;;;;0.00;0.00;;;;;22.11;50.57;101567.69;5124264;27;45538;-62
2021/06/10 03:46:45;;;;;;;;;0.00;0.00;;;;;22.12;50.63;101566.69;5124494;27;45313;-62
2021/06/10 03:49:12;;;;;;;;;0.00;0.00;;;;;22.12;50.35;101568.53;5124680;27;45297;-61
2021/06/10 03:51:38;;;;;;;;;0.00;0.00;;;;;22.12;50.58;101568.53;5124405;27;45251;-62
2021/06/10 03:54:05;;;;;;;;;0.00;0.00;;;;;22.14;50.55;101563.84;5123637;27;46485;-62
2021/06/10 03:56:31;;;;;;;;;0.00;0.00;;;;;22.10;50.65;101566.03;5123774;27;45385;-61
2021/06/10 03:58:56;;;;;;;;;0.00;0.00;;;;;22.04;50.30;101569.41;5124192;27;45379;-62
2021/06/10 04:01:21;;;;;;;;;0.00;0.00;;;;;22.02;50.61;101566.06;5124413;27;45408;-63
2021/06/10 04:03:47;;;;;;;;;0.00;0.00;;;;;22.02;50.23;101565.22;5107353;27;46280;-62
2021/06/10 04:06:15;;;;;;;;;0.00;0.00;;;;;22.01;50.06;101561.75;5085361;27;45262;-62
2021/06/10 04:08:40;;;;;;;;;0.00;0.00;;;;;22.01;49.81;101564.41;5120050;27;45454;-62
2021/06/10 04:11:06;;;;;;;;;0.00;0.00;;;;;21.98;49.42;101563.91;5123943;27;45375;-62
2021/06/10 04:13:31;;;;;;;;;0.00;0.00;;;;;21.97;49.04;101567.59;5110086;27;46491;-62
2021/06/10 04:15:57;;;;;;;;;0.00;0.00;;;;;21.94;48.96;101576.78;5124117;27;45324;-61
2021/06/10 04:18:22;;;;;;;;;0.00;0.00;;;;;21.92;48.75;101570.78;5105432;27;45415;-61
2021/06/10 04:20:49;;;;;;;;;0.00;0.00;;;;;21.98;48.60;101566.59;5124233;27;45376;-61
2021/06/10 04:23:15;;;;;;;;;0.00;0.00;;;;;21.98;48.33;101583.47;5123366;27;46115;-62
2021/06/10 04:25:41;;;;;;;;;0.00;0.00;;;;;22.00;48.33;101580.63;5123679;27;45219;-62
2021/06/10 04:28:06;;;;;;;;;0.00;0.00;;;;;21.98;48.12;101574.63;5123711;27;45569;-62
2021/06/10 04:30:32;;;;;;;;;0.00;0.00;;;;;21.96;47.97;101580.13;5123433;27;45458;-63
2021/06/10 04:32:57;;;;;;;;;0.00;0.00;;;;;21.96;48.12;101580.13;5123243;27;45433;-62
2021/06/10 04:35:23;;;;;;;;;0.00;0.00;;;;;22.00;47.67;101585.97;5123651;27;45218;-61
2021/06/10 04:37:48;;;;;;;;;0.00;0.00;;;;;21.99;47.28;101590.50;5123671;27;45413;-61
2021/06/10 04:40:14;;;;;;;;;0.00;0.00;;;;;21.97;47.06;101591.69;5123364;27;45289;-61
2021/06/10 04:42:40;;;;;;;;;0.00;0.00;;;;;21.96;46.88;101590.00;5122615;27;45341;-62
2021/06/10 04:45:06;;;;;;;;;0.00;0.00;;;;;21.97;46.80;101589.84;5122695;27;45251;-62
2021/06/10 04:47:31;;;;;;;;;0.00;0.00;;;;;21.95;46.75;101581.16;5123320;27;45505;-62
2021/06/10 04:49:57;;;;;;;;;0.00;0.00;;;;;22.01;46.35;101588.47;5104075;27;45317;-62
2021/06/10 04:52:22;;;;;;;;;0.00;0.00;;;;;22.02;46.36;101594.66;5122568;27;45768;-62
2021/06/10 04:54:48;;;;;;;;;0.00;0.00;;;;;22.04;45.92;101582.78;5123262;27;45351;-63
2021/06/10 04:57:13;;;;;;;;;0.00;0.00;;;;;22.07;45.01;101593.16;5122760;27;45281;-61
2021/06/10 04:59:38;;;;;;;;;0.00;0.00;;;;;22.02;44.00;101586.63;5123224;27;45284;-62
2021/06/10 05:02:07;;;;;;;;;0.00;0.00;;;;;22.03;44.27;101590.97;5122859;27;46264;-62
2021/06/10 05:04:32;;;;;;;;;0.00;0.00;;;;;22.08;43.23;101596.66;5114146;27;45249;-62
2021/06/10 05:06:58;;;;;;;;;0.00;0.00;;;;;22.11;42.27;101607.00;5102446;27;45248;-62
2021/06/10 05:09:23;;;;;;;;;0.00;0.00;;;;;22.11;41.50;101601.63;5102937;27;45294;-62
2021/06/10 05:11:49;;;;;;;;;0.00;0.00;;;;;22.12;40.37;101587.28;5115470;27;46690;-62
2021/06/10 05:14:16;;;;;;;;;0.00;0.00;;;;;22.15;38.81;101591.44;5110480;27;45340;-62
2021/06/10 05:16:41;;;;;;;;;0.00;0.00;;;;;22.17;40.61;101581.38;5122608;27;45371;-62
2021/06/10 05:19:06;;;;;;;;;0.00;0.00;;;;;22.24;40.54;101585.06;5104549;27;45309;-62
2021/06/10 05:21:32;;;;;;;;;0.00;0.00;;;;;22.32;40.04;101588.50;5118538;27;45579;-62
2021/06/10 05:23:57;;;;;;;;;0.00;0.00;;;;;22.32;38.61;101599.22;5121137;27;45709;-63
2021/06/10 05:26:23;;;;;;;;;0.00;0.00;;;;;22.29;37.74;101598.75;5122169;27;45295;-62
2021/06/10 05:28:50;;;;;;;;;0.00;0.00;;;;;22.22;38.06;101595.06;5121405;27;45391;-62
2021/06/10 05:31:16;;;;;;;;;0.00;0.00;;;;;22.16;37.85;101585.91;5122380;27;45386;-63
2021/06/10 05:33:42;;;;;;;;;0.00;0.00;;;;;22.13;37.40;101589.75;5122165;27;45237;-63
2021/06/10 05:36:07;;;;;;;;;0.00;0.00;;;;;22.07;38.38;101587.78;5122289;27;45176;-63
2021/06/10 05:38:33;;;;;;;;;0.00;0.00;;;;;22.08;38.00;101586.78;5122406;27;45229;-62
2021/06/10 05:40:58;;;;;;;;;0.00;0.00;;;;;22.08;37.83;101596.66;5121810;27;46207;-62
2021/06/10 05:43:24;;;;;;;;;0.00;0.00;;;;;22.01;38.32;101585.81;5121880;27;45314;-63
2021/06/10 05:45:53;;;;;;;;;0.00;0.00;;;;;22.17;38.47;101590.25;5122133;27;45265;-62
2021/06/10 05:48:18;;;;;;;;;0.00;0.00;;;;;22.26;37.85;101594.56;5122393;27;45587;-62
2021/06/10 05:50:45;;;;;;;;;0.00;0.00;;;;;22.38;37.83;101599.53;5121937;27;45270;-62
2021/06/10 05:53:11;;;;;;;;;0.00;0.00;;;;;22.50;37.68;101596.28;5113019;27;45229;-62
2021/06/10 05:55:37;;;;;;;;;0.00;0.00;;;;;22.63;37.72;101589.50;5101539;27;45358;-64
2021/06/10 05:58:03;;;;;;;;;0.00;0.00;;;;;22.76;37.06;101602.28;5121617;27;45264;-62
2021/06/10 06:00:29;;;;;;;;;0.00;0.00;;;;;22.87;37.38;101600.06;5121453;27;46086;-63
2021/06/10 06:02:54;;;;;;;;;0.00;0.00;;;;;22.96;36.02;101595.47;5117882;27;45372;-62
2021/06/10 06:05:20;;;;;;;;;0.00;0.00;;;;;23.03;35.99;101593.75;5112442;27;45309;-62
2021/06/10 06:07:45;;;;;;;;;13.00;13.00;;;;;23.11;36.11;101604.41;5115600;27;45578;-63
2021/06/10 06:10:12;;;;;;;;;0.00;0.00;;;;;23.17;36.24;101610.88;5113059;27;45424;-63
2021/06/10 06:12:40;;;;;;;;;0.00;0.00;;;;;23.17;34.02;101610.03;5120411;27;45418;-62
2021/06/10 06:15:07;;;;;;;;;0.00;0.00;;;;;23.03;34.13;101603.63;5125155;27;45216;-62
2021/06/10 06:17:32;;;;;;;;;0.00;0.00;;;;;22.92;34.34;101605.69;5116209;27;45168;-62
2021/06/10 06:19:59;;;;;;;;;0.00;0.00;;;;;22.90;34.70;101615.75;5117977;27;45243;-62
2021/06/10 06:22:26;;;;;;;;;0.00;0.00;;;;;22.91;34.45;101614.72;5125136;27;45335;-63
2021/06/10 06:24:52;;;;;;;;;0.00;0.00;;;;;22.99;35.21;101610.34;5111702;27;45414;-68
2021/06/10 06:27:18;;;;;;;;;0.00;0.00;;;;;23.20;34.79;101618.56;5110436;27;45446;-63
2021/06/10 06:29:43;;;;;;;;;0.00;0.00;;;;;23.29;35.23;101617.47;5124296;27;46451;-62
2021/06/10 06:32:08;;;;;;;;;0.00;0.00;;;;;23.30;34.73;101619.16;5124655;27;45326;-62
2021/06/10 06:34:34;;;;;;;;;0.00;0.00;;;;;23.28;34.75;101618.50;5116361;27;45523;-63
2021/06/10 06:36:59;;;;;;;;;0.00;0.00;;;;;23.24;35.05;101616.34;5117843;27;45426;-63
2021/06/10 06:39:25;;;;;;;;;0.00;0.00;;;;;23.24;34.74;101630.59;5112699;27;45402;-63
2021/06/10 06:41:50;;;;;;;;;0.00;0.00;;;;;23.31;35.11;101636.06;5124359;27;45321;-63
2021/06/10 06:44:15;;;;;;;;;0.00;0.00;;;;;23.39;35.11;101644.03;5122682;27;45654;-63
2021/06/10 06:46:41;;;;;;;;;0.00;0.00;;;;;23.45;34.85;101645.13;5124585;27;45485;-63
2021/06/10 06:49:06;;;;;;;;;0.00;0.00;;;;;23.50;34.35;101653.47;5124324;27;46327;-63
2021/06/10 06:51:32;;;;;;;;;0.00;0.00;;;;;23.46;34.16;101644.97;5124295;27;45286;-63
2021/06/10 06:53:58;;;;;;;;;0.00;0.00;;;;;23.45;34.03;101651.31;5118526;27;45238;-62
2021/06/10 06:56:24;;;;;;;;;0.00;0.00;;;;;23.48;34.23;101658.19;5103479;27;45313;-62
2021/06/10 06:58:50;;;;;;;;;0.00;0.00;;;;;23.51;34.31;101649.78;5118569;27;45429;-63
2021/06/10 07:01:16;;;;;;;;;0.00;0.00;;;;;23.55;34.37;101657.25;5124414;27;45396;-62
2021/06/10 07:03:42;;;;;;;;;0.00;0.00;;;;;23.66;34.79;101655.97;5121152;27;45315;-62
2021/06/10 07:06:07;;;;;;;;;0.00;0.00;;;;;23.89;34.35;101655.94;5110695;27;45309;-63
2021/06/10 07:08:32;;;;;;;;;0.00;0.00;;;;;24.10;34.53;101654.34;5106856;27;45642;-63
2021/06/10 07:10:59;;;;;;;;;0.00;0.00;;;;;24.25;33.98;101660.53;5113648;27;45374;-63
2021/06/10 07:13:25;;;;;;;;;0.00;0.00;;;;;24.38;34.34;101656.34;5109407;27;45331;-62
2021/06/10 07:15:51;;;;;;;;;0.00;0.00;;;;;24.50;33.48;101676.38;5101209;27;45121;-62
2021/06/10 07:18:16;;;;;;;;;0.00;0.00;;;;;24.56;33.33;101668.41;5116882;27;45382;-63
2021/06/10 07:20:42;;;;;;;;;0.00;0.00;;;;;24.64;33.41;101671.97;5112132;27;45219;-62
2021/06/10 07:23:08;;;;;;;;;0.00;0.00;;;;;24.70;32.97;101669.38;5119287;27;45274;-63
2021/06/10 07:25:33;;;;;;;;;0.00;0.00;;;;;24.80;33.01;101663.69;5105896;27;45173;-62
2021/06/10 07:27:58;;;;;;;;;0.00;0.00;;;;;25.07;32.53;101670.16;5085669;27;46848;-62
2021/06/10 07:30:24;;;;;;;;;0.00;0.00;;;;;25.31;32.04;101665.44;5111326;27;45265;-63
2021/06/10 07:32:50;;;;;;;;;0.00;0.00;;;;;25.64;31.69;101670.22;5109367;27;45475;-63
2021/06/10 07:35:21;;;;;;;;;0.00;0.00;;;;;25.95;31.97;101673.34;5103673;27;45295;-62
2021/06/10 07:37:47;;;;;;;;;0.00;0.00;;;;;26.26;31.03;101669.38;5118450;27;46564;-62
2021/06/10 07:40:14;;;;;;;;;0.00;0.00;;;;;26.53;30.90;101666.78;5123238;27;45180;-63
2021/06/10 07:42:39;;;;;;;;;0.00;0.00;;;;;26.49;30.02;101662.84;5121434;27;45751;-61
2021/06/10 07:45:05;;;;;;;;;0.00;0.00;;;;;26.43;29.67;101672.53;5124074;27;45446;-62
2021/06/10 07:47:30;;;;;;;;;0.00;0.00;;;;;26.27;30.01;101667.53;5109780;27;45442;-61
2021/06/10 07:49:56;;;;;;;;;0.00;0.00;;;;;26.21;28.94;101674.53;5115117;27;45334;-62
2021/06/10 07:52:21;;;;;;;;;0.00;0.00;;;;;26.17;29.07;101670.56;5110172;27;46457;-62
2021/06/10 07:54:46;;;;;;;;;0.00;0.00;;;;;26.17;29.23;101666.00;5112313;27;45466;-63
2021/06/10 07:57:12;;;;;;;;;0.00;0.00;;;;;26.21;29.27;101671.00;5107494;27;45508;-62
2021/06/10 07:59:38;;;;;;;;;0.00;0.00;;;;;26.71;29.09;101672.44;5117139;27;45318;-63
2021/06/10 08:02:04;;;;;;;;;0.00;0.00;;;;;27.39;28.74;101669.66;5121726;27;45455;-62
2021/06/10 08:04:30;;;;;;;;;0.00;0.00;;;;;28.12;28.00;101665.16;5115649;27;45234;-62
2021/06/10 08:06:56;;;;;;;;;0.00;0.00;;;;;28.79;27.64;101657.59;5108580;27;45727;-62
2021/06/10 08:09:21;;;;;;;;;0.00;0.00;;;;;29.45;27.03;101661.69;5118469;27;45280;-62
2021/06/10 08:11:46;;;;;;;;;0.00;0.00;;;;;30.15;26.64;101665.97;5108478;27;45260;-63
2021/06/10 08:14:12;;;;;;;;;0.00;0.00;;;;;30.77;25.71;101657.66;5114537;27;45261;-65
2021/06/10 08:16:37;;;;;;;;;0.00;0.00;;;;;31.19;24.85;101660.34;5120963;27;46387;-64
2021/06/10 08:19:03;;;;;;;;;0.00;0.00;;;;;31.76;24.24;101651.63;5091257;27;45272;-63
2021/06/10 08:21:29;;;;;;;;;0.00;0.00;;;;;32.11;23.64;101659.72;5117264;27;45353;-63
2021/06/10 08:23:55;;;;;;;;;0.00;0.00;;;;;32.57;23.82;101665.25;5110577;27;45871;-61
2021/06/10 08:26:20;;;;;;;;;0.00;0.00;;;;;33.28;23.78;101657.47;5113736;27;46284;-63
2021/06/10 08:28:46;;;;;;;;;0.00;0.00;;;;;33.92;21.20;101648.88;5116311;27;45400;-62
2021/06/10 08:31:11;;;;;;;;;0.00;0.00;;;;;34.35;22.13;101655.38;5111595;27;45389;-61
2021/06/10 08:33:37;;;;;;;;;0.00;0.00;;;;;34.97;21.95;101648.63;5126828;27;45471;-65
2021/06/10 08:36:06;;;;;;;;;0.00;0.00;;;;;35.24;21.15;101645.00;5135068;27;45434;-63
2021/06/10 08:38:33;;;;;;;;;0.00;0.00;;;;;35.59;21.23;101655.31;5112537;27;45285;-62
2021/06/10 08:40:58;;;;;;;;;0.00;0.00;;;;;36.30;20.32;101652.06;5118869;27;46464;-64
2021/06/10 08:43:24;;;;;;;;;0.00;0.00;;;;;37.09;20.40;101649.19;5095735;27;45447;-64
2021/06/10 08:45:59;;;;;;;;;0.00;0.00;;;;;38.01;18.41;101656.31;5102113;27;45330;-62
2021/06/10 08:48:24;;;;;;;;;0.00;0.00;;;;;39.19;18.65;101650.81;5106826;27;45422;-63
2021/06/10 08:50:50;;;;;;;;;0.00;0.00;;;;;40.69;17.42;101648.56;5122199;27;45328;-66
2021/06/10 08:53:15;;;;;;;;;0.00;0.00;;;;;41.90;16.27;101650.44;5122218;27;45434;-64
2021/06/10 08:55:41;;;;;;;;;0.00;0.00;;;;;43.33;15.95;101662.72;5123228;27;46266;-64
2021/06/10 08:58:06;;;;;;;;;0.00;0.00;;;;;44.41;14.45;101640.94;5113508;27;45585;-66
2021/06/10 09:00:32;;;;;;;;;0.00;0.00;;;;;45.57;13.65;101644.63;5122170;27;45619;-63
2021/06/10 09:03:02;;;;;;;;;0.00;0.00;;;;;46.39;11.94;101641.44;5129208;27;45319;-64
2021/06/10 09:05:29;;;;;;;;;0.00;0.00;;;;;46.71;12.55;101642.56;5114929;27;46438;-62
2021/06/10 09:08:01;;;;;;;;;0.00;0.00;;;;;47.97;11.67;101641.84;5103526;27;45322;-61
2021/06/10 09:10:29;;;;;;;;;0.00;0.00;;;;;48.59;11.14;101647.16;5122867;27;45651;-61
2021/06/10 09:12:57;;;;;;;;;0.00;0.00;;;;;48.91;10.56;101656.38;5107716;27;45514;-61
2021/06/10 09:15:25;;;;;;;;;0.00;0.00;;;;;49.41;10.63;101637.28;5115984;27;46397;-62
2021/06/10 09:17:54;;;;;;;;;0.00;0.00;;;;;50.10;9.83;101643.19;5116532;27;45488;-62
2021/06/10 09:20:19;;;;;;;;;0.00;0.00;;;;;50.71;9.80;101649.91;5119107;27;45495;-61
2021/06/10 09:22:46;;;;;;;;;0.00;0.00;;;;;51.44;9.01;101653.50;5121676;27;45451;-62
2021/06/10 09:25:16;;;;;;;;;0.00;0.00;;;;;51.58;8.63;101650.09;5109780;27;45428;-61
2021/06/10 09:27:57;;;;;;;;;0.00;0.00;;;;;51.06;8.75;101637.69;5120154;27;45348;-62
2021/06/10 09:30:37;;;;;;;;;0.00;0.00;;;;;50.85;9.23;101633.41;5119329;27;45328;-62
2021/06/10 09:33:09;;;;;;;;;0.00;0.00;;;;;50.82;9.54;101639.72;5105956;27;45269;-61
2021/06/10 09:35:38;;;;;;;;;0.00;0.00;;;;;50.61;9.02;101642.97;5110538;27;45617;-63
2021/06/10 09:38:07;;;;;;;;;0.00;0.00;;;;;50.07;9.39;101635.53;5107554;27;45478;-62
2021/06/10 09:40:34;;;;;;;;;0.00;0.00;;;;;48.68;9.99;101636.69;5104829;27;45538;-64
2021/06/10 09:43:00;;;;;;;;;0.00;0.00;;;;;47.91;10.64;101642.47;5105770;27;45437;-62
2021/06/10 09:45:28;;;;;;;;;0.00;0.00;;;;;47.49;10.30;101648.31;5111692;27;46217;-63
2021/06/10 09:47:58;;;;;;;;;0.00;0.00;;;;;46.93;10.81;101646.91;5104732;27;45354;-63
2021/06/10 09:50:30;;;;;;;;;0.00;0.00;;;;;46.61;11.33;101641.03;5092470;27;45437;-61
2021/06/10 09:53:04;;;;;;;;;0.00;0.00;;;;;46.48;11.75;101641.34;5106837;27;45747;-62
2021/06/10 09:56:02;;;;;;;;;0.00;0.00;;;;;46.41;11.55;101639.94;5103980;27;45640;-62
2021/06/10 09:58:30;;;;;;;;;0.00;0.00;;;;;45.52;11.55;101642.88;5105652;27;45606;-63
2021/06/10 10:00:58;;;;;;;;;0.00;0.00;;;;;44.31;12.73;101644.84;5115770;27;45408;-63
2021/06/10 10:03:23;;;;;;;;;0.00;0.00;;;;;43.08;12.57;101653.16;5119113;27;45255;-62
2021/06/10 10:05:58;;;;;;;;;0.00;0.00;;;;;41.75;13.35;101646.09;5102055;27;45467;-66
2021/06/10 10:08:28;;;;;;;;;0.00;0.00;;;;;40.54;14.01;101641.41;5080947;27;45603;-63
2021/06/10 10:10:58;;;;;;;;;0.00;0.00;;;;;39.65;14.59;101646.75;5099740;27;45284;-62
2021/06/10 10:13:26;;;;;;;;;0.00;0.00;;;;;39.98;15.26;101636.69;5108893;27;45458;-62
2021/06/10 10:15:52;;;;;;;;;0.00;0.00;;;;;39.71;15.02;101645.56;5120563;27;46703;-62
2021/06/10 10:18:18;;;;;;;;;0.00;0.00;;;;;40.41;14.74;101633.88;5120554;27;45306;-62
2021/06/10 10:20:45;;;;;;;;;0.00;0.00;;;;;40.12;14.86;101634.03;5120443;27;45522;-62
2021/06/10 10:23:10;;;;;;;;;0.00;0.00;;;;;39.91;14.84;101639.81;5106668;27;45379;-61
2021/06/10 10:25:36;;;;;;;;;0.00;0.00;;;;;42.03;14.30;101633.06;5086735;27;47211;-62
2021/06/10 10:28:07;;;;;;;;;0.00;0.00;;;;;44.19;13.07;101630.84;5120164;27;45308;-62
2021/06/10 10:30:33;;;;;;;;;0.00;0.00;;;;;45.15;11.28;101628.69;5120209;27;45505;-63
2021/06/10 10:33:18;;;;;;;;;0.00;0.00;;;;;43.63;11.66;101636.13;5121042;27;45464;-62
2021/06/10 10:35:57;;;;;;;;;0.00;0.00;;;;;41.59;12.88;101632.63;5120844;27;46551;-61
2021/06/10 10:38:42;;;;;;;;;0.00;0.00;;;;;40.32;13.88;101636.50;5101806;27;45499;-62
2021/06/10 10:41:11;;;;;;;;;0.00;0.00;;;;;38.65;14.76;101627.94;5120961;27;45247;-60
2021/06/10 10:43:38;;;;;;;;;0.00;0.00;;;;;38.09;16.24;101623.66;5102037;27;45437;-62
2021/06/10 10:46:16;;;;;;;;;0.00;0.00;;;;;38.73;15.78;101624.59;5120122;27;46968;-63
2021/06/10 10:48:44;;;;;;;;;0.00;0.00;;;;;38.80;15.71;101624.25;5122044;27;45207;-62
2021/06/10 10:51:33;;;;;;;;;0.00;0.00;;;;;38.69;15.48;101615.28;5123739;27;45515;-61
2021/06/10 10:54:00;;;;;;;;;0.00;0.00;;;;;37.99;15.53;101612.69;5124057;27;45504;-63
2021/06/10 10:56:40;;;;;;;;;0.00;0.00;;;;;37.59;16.64;101606.34;5104558;27;46190;-63
2021/06/10 10:59:13;;;;;;;;;0.00;0.00;;;;;37.55;17.06;101602.47;5105443;27;45448;-62
2021/06/10 11:01:39;;;;;;;;;0.00;0.00;;;;;37.90;16.88;101597.94;5123610;27;45180;-62
2021/06/10 11:04:05;;;;;;;;;0.00;0.00;;;;;38.42;16.75;101606.69;5123854;27;45468;-62
2021/06/10 11:06:33;;;;;;;;;0.00;0.00;;;;;38.91;16.47;101612.06;5122924;27;46322;-62
2021/06/10 11:09:00;;;;;;;;;0.00;0.00;;;;;39.12;16.60;101609.16;5123409;27;45305;-63
2021/06/10 11:11:53;;;;;;;;;0.00;0.00;;;;;39.24;15.97;101606.78;5118873;27;45301;-63
2021/06/10 11:14:35;;;;;;;;;0.00;0.00;;;;;39.23;16.37;101610.66;5117724;27;45535;-61
2021/06/10 11:17:19;;;;;;;;;0.00;0.00;;;;;39.12;16.02;101598.16;5122589;27;45729;-62
2021/06/10 11:19:56;;;;;;;;;0.00;0.00;;;;;38.96;16.09;101603.78;5117905;27;45236;-62
2021/06/10 11:22:32;;;;;;;;;0.00;0.00;;;;;38.84;16.71;101597.03;5125589;27;45321;-62
2021/06/10 11:24:58;;;;;;;;;0.00;0.00;;;;;38.65;16.57;101585.94;5122711;27;45468;-62
2021/06/10 11:27:35;;;;;;;;;0.00;0.00;;;;;38.40;16.99;101598.72;5105168;27;46174;-62